createdAt,value
2022-12-15T00:00:37.853Z,16.50
2022-12-15T00:03:28.745Z,16.30
2022-12-15T00:06:20.669Z,14.80
2022-12-15T00:09:14.225Z,15.20
2022-12-15T00:14:52.147Z,13.60
2022-12-15T00:17:41.928Z,14.80
2022-12-15T00:20:31.988Z,15.30
2022-12-15T00:23:28.492Z,15.20
2022-12-15T00:26:18.849Z,15.10
2022-12-15T00:29:09.268Z,14.90
2022-12-15T00:31:59.522Z,15.30
2022-12-15T00:34:49.112Z,16.60
2022-12-15T00:37:38.896Z,15.80
2022-12-15T00:40:14.129Z,17.10
2022-12-15T00:42:49.594Z,16.20
2022-12-15T00:45:42.468Z,18.40
2022-12-15T00:48:15.061Z,18.60
2022-12-15T00:50:53.926Z,16.60
2022-12-15T00:53:44.118Z,17.50
2022-12-15T00:56:33.808Z,17.50
2022-12-15T00:59:23.149Z,19.40
2022-12-15T01:02:13.269Z,18.30
2022-12-15T01:05:02.932Z,18.90
2022-12-15T01:07:53.278Z,18.90
2022-12-15T01:10:42.658Z,19.70
2022-12-15T01:13:34.513Z,20.00
2022-12-15T01:16:31.220Z,20.90
2022-12-15T01:19:21.637Z,20.30
2022-12-15T01:21:54.246Z,20.60
2022-12-15T01:24:27.228Z,21.10
2022-12-15T01:26:59.759Z,23.60
2022-12-15T01:29:33.218Z,24.70
2022-12-15T01:32:05.917Z,21.30
2022-12-15T01:34:38.719Z,21.10
2022-12-15T01:37:11.426Z,21.50
2022-12-15T01:40:01.372Z,20.80
2022-12-15T01:42:33.997Z,21.40
2022-12-15T01:45:36.408Z,16.30
2022-12-15T01:48:14.498Z,22.10
2022-12-15T01:50:56.025Z,23.00
2022-12-15T01:53:30.750Z,22.60
2022-12-15T01:56:05.537Z,21.70
2022-12-15T01:58:39.479Z,21.90
2022-12-15T02:01:12.594Z,20.30
2022-12-15T02:03:48.698Z,20.80
2022-12-15T02:06:23.319Z,20.80
2022-12-15T02:08:58.979Z,19.60
2022-12-15T02:11:51.615Z,15.80
2022-12-15T02:14:37.230Z,17.00
2022-12-15T02:17:23.579Z,18.50
2022-12-15T02:20:30.952Z,19.40
2022-12-15T02:23:26.929Z,18.50
2022-12-15T02:26:20.900Z,18.70
2022-12-15T02:29:04.895Z,18.70
2022-12-15T02:31:54.309Z,18.30
2022-12-15T02:34:35.101Z,19.10
2022-12-15T02:37:13.303Z,18.00
2022-12-15T02:39:45.700Z,17.00
2022-12-15T02:42:18.407Z,17.00
2022-12-15T02:44:55.640Z,18.10
2022-12-15T02:47:37.689Z,16.20
2022-12-15T02:50:48.447Z,16.80
2022-12-15T02:53:39.767Z,17.20
2022-12-15T02:56:20.237Z,16.30
2022-12-15T02:59:01.649Z,17.20
2022-12-15T03:01:38.842Z,16.60
2022-12-15T03:04:13.868Z,17.20
2022-12-15T03:06:46.599Z,17.80
2022-12-15T03:09:19.179Z,14.20
2022-12-15T03:11:52.107Z,16.40
2022-12-15T03:14:26.687Z,17.40
2022-12-15T03:16:59.682Z,16.60
2022-12-15T03:19:32.369Z,17.60
2022-12-15T03:22:05.861Z,19.60
2022-12-15T03:24:39.046Z,18.60
2022-12-15T03:27:11.711Z,18.90
2022-12-15T03:29:44.330Z,19.20
2022-12-15T03:32:16.990Z,18.90
2022-12-15T03:34:49.766Z,20.00
2022-12-15T03:37:22.499Z,18.90
2022-12-15T03:39:55.091Z,18.30
2022-12-15T03:42:41.318Z,18.70
2022-12-15T03:45:14.285Z,17.50
2022-12-15T03:47:47.556Z,18.60
2022-12-15T03:50:22.439Z,18.20
2022-12-15T03:52:56.158Z,17.70
2022-12-15T03:55:29.798Z,17.80
2022-12-15T04:00:34.326Z,17.80
2022-12-15T04:03:07.541Z,17.70
2022-12-15T04:05:40.330Z,17.50
2022-12-15T04:08:13.198Z,18.00
2022-12-15T04:10:45.647Z,19.50
2022-12-15T04:13:18.278Z,18.80
2022-12-15T04:15:50.699Z,18.20
2022-12-15T04:18:24.088Z,20.10
2022-12-15T04:20:56.758Z,20.00
2022-12-15T04:23:30.174Z,15.70
2022-12-15T04:26:20.231Z,19.90
2022-12-15T04:29:09.858Z,21.70
2022-12-15T04:32:01.570Z,18.30
2022-12-15T04:34:51.098Z,19.10
2022-12-15T04:37:40.839Z,19.20
2022-12-15T04:40:31.551Z,20.80
2022-12-15T04:43:21.468Z,19.60
2022-12-15T04:46:11.147Z,19.80
2022-12-15T04:49:00.736Z,21.90
2022-12-15T04:51:53.063Z,21.20
2022-12-15T04:54:43.497Z,22.20
2022-12-15T04:57:33.118Z,22.70
2022-12-15T05:00:23.746Z,24.10
2022-12-15T05:03:18.100Z,24.60
2022-12-15T05:06:08.277Z,26.20
2022-12-15T05:08:58.289Z,25.70
2022-12-15T05:11:48.043Z,25.80
2022-12-15T05:14:37.836Z,25.20
2022-12-15T05:17:28.043Z,24.50
2022-12-15T05:20:18.231Z,25.50
2022-12-15T05:23:13.569Z,25.60
2022-12-15T05:26:03.808Z,25.00
2022-12-15T05:28:54.070Z,28.10
2022-12-15T05:31:45.519Z,27.90
2022-12-15T05:34:18.255Z,27.50
2022-12-15T05:36:51.477Z,19.40
2022-12-15T05:39:24.718Z,28.30
2022-12-15T05:41:58.698Z,28.10
2022-12-15T05:44:33.485Z,27.90
2022-12-15T05:47:06.434Z,29.70
2022-12-15T05:49:39.217Z,28.00
2022-12-15T05:52:11.880Z,27.40
2022-12-15T05:54:44.558Z,28.00
2022-12-15T05:57:17.487Z,25.30
2022-12-15T05:59:50.088Z,30.30
2022-12-15T06:02:22.972Z,22.40
2022-12-15T06:04:55.768Z,21.40
2022-12-15T06:07:28.818Z,29.80
2022-12-15T06:10:01.278Z,29.50
2022-12-15T06:12:34.078Z,28.50
2022-12-15T06:15:07.234Z,29.20
2022-12-15T06:17:40.579Z,28.80
2022-12-15T06:20:14.098Z,30.40
2022-12-15T06:22:50.077Z,31.20
2022-12-15T06:25:22.558Z,31.70
2022-12-15T06:28:00.013Z,29.60
2022-12-15T06:30:34.117Z,31.40
2022-12-15T06:33:06.837Z,32.20
2022-12-15T06:35:41.097Z,32.70
2022-12-15T06:40:44.982Z,30.10
2022-12-15T06:43:17.758Z,31.10
2022-12-15T06:45:53.346Z,31.50
2022-12-15T06:48:27.596Z,33.10
2022-12-15T06:51:04.458Z,33.20
2022-12-15T06:53:41.360Z,35.50
2022-12-15T06:56:23.198Z,36.50
2022-12-15T06:58:58.988Z,38.90
2022-12-15T07:01:32.161Z,37.00
2022-12-15T07:04:06.182Z,37.00
2022-12-15T07:06:40.540Z,36.30
2022-12-15T07:09:18.587Z,37.00
2022-12-15T07:11:51.705Z,36.30
2022-12-15T07:14:26.137Z,39.00
2022-12-15T07:16:58.566Z,38.50
2022-12-15T07:19:31.840Z,37.60
2022-12-15T07:22:04.407Z,27.60
2022-12-15T07:24:37.407Z,34.10
2022-12-15T07:27:09.898Z,28.20
2022-12-15T07:29:42.668Z,36.20
2022-12-15T07:32:16.028Z,36.10
2022-12-15T07:34:48.796Z,39.10
2022-12-15T07:37:22.459Z,33.40
2022-12-15T07:39:55.555Z,26.10
2022-12-15T07:42:32.724Z,37.30
2022-12-15T07:45:05.902Z,34.90
2022-12-15T07:47:38.829Z,33.90
2022-12-15T07:50:12.610Z,28.20
2022-12-15T07:55:16.975Z,40.00
2022-12-15T07:57:52.307Z,39.30
2022-12-15T08:00:28.567Z,38.90
2022-12-15T08:03:03.110Z,33.60
2022-12-15T08:05:36.812Z,32.00
2022-12-15T08:10:48.138Z,33.70
2022-12-15T08:13:52.919Z,33.80
2022-12-15T08:16:14.313Z,32.10
2022-12-15T08:19:00.278Z,32.50
2022-12-15T08:21:33.798Z,34.70
2022-12-15T08:24:06.570Z,34.90
2022-12-15T08:26:40.000Z,44.00
2022-12-15T08:32:09.481Z,37.50
2022-12-15T08:34:42.987Z,35.70
2022-12-15T08:37:15.729Z,36.40
2022-12-15T08:39:48.687Z,36.50
2022-12-15T08:42:21.594Z,27.70
2022-12-15T08:44:54.114Z,29.60
2022-12-15T08:47:26.928Z,36.40
2022-12-15T08:49:59.706Z,35.20
2022-12-15T08:52:32.462Z,35.30
2022-12-15T08:55:05.237Z,37.10
2022-12-15T08:57:37.911Z,33.70
2022-12-15T09:00:12.339Z,36.70
2022-12-15T09:02:45.127Z,38.10
2022-12-15T09:05:17.727Z,37.50
2022-12-15T09:07:50.318Z,36.80
2022-12-15T09:10:23.018Z,34.40
2022-12-15T09:12:56.226Z,34.90
2022-12-15T09:15:59.914Z,39.30
2022-12-15T09:18:22.070Z,39.30
2022-12-15T09:20:54.769Z,28.10
2022-12-15T09:23:29.903Z,36.60
2022-12-15T09:26:05.850Z,33.10
2022-12-15T09:28:39.075Z,31.30
2022-12-15T09:31:13.943Z,36.90
2022-12-15T09:33:47.736Z,38.00
2022-12-15T09:38:52.370Z,36.90
2022-12-15T09:41:28.392Z,35.80
2022-12-15T09:44:05.048Z,36.50
2022-12-15T09:47:12.321Z,38.50
2022-12-15T09:49:55.013Z,34.70
2022-12-15T09:52:30.659Z,27.00
2022-12-15T09:55:05.079Z,35.50
2022-12-15T09:57:46.449Z,36.00
2022-12-15T10:00:26.154Z,27.50
2022-12-15T10:03:12.671Z,34.80
2022-12-15T10:06:15.996Z,37.30
2022-12-15T10:08:52.161Z,36.30
2022-12-15T10:11:38.388Z,36.20
2022-12-15T10:14:23.459Z,38.30
2022-12-15T10:17:05.067Z,34.60
2022-12-15T10:19:43.599Z,35.10
2022-12-15T10:22:18.849Z,35.90
2022-12-15T10:28:07.622Z,36.80
2022-12-15T10:30:47.533Z,36.60
2022-12-15T10:33:26.045Z,35.40
2022-12-15T10:36:00.269Z,36.30
2022-12-15T10:38:38.348Z,38.90
2022-12-15T10:41:14.160Z,36.50
2022-12-15T10:43:48.561Z,38.90
2022-12-15T10:46:26.058Z,38.20
2022-12-15T10:49:02.851Z,35.30
2022-12-15T10:51:38.244Z,34.40
2022-12-15T10:54:16.539Z,33.60
2022-12-15T10:56:54.673Z,30.10
2022-12-15T10:59:31.258Z,30.90
2022-12-15T11:02:27.829Z,30.40
2022-12-15T11:05:02.093Z,29.70
2022-12-15T11:07:41.078Z,34.10
2022-12-15T11:10:19.990Z,35.00
2022-12-15T11:13:02.068Z,37.30
2022-12-15T11:15:51.641Z,39.50
2022-12-15T11:18:36.643Z,33.60
2022-12-15T11:21:20.526Z,33.00
2022-12-15T11:24:04.331Z,32.20
2022-12-15T11:26:49.052Z,34.20
2022-12-15T11:29:31.403Z,32.80
2022-12-15T11:32:07.266Z,33.00
2022-12-15T11:34:44.260Z,33.00
2022-12-15T11:37:37.775Z,32.70
2022-12-15T11:40:36.130Z,34.40
2022-12-15T11:43:35.945Z,34.00
2022-12-15T11:46:20.664Z,33.20
2022-12-15T11:51:40.970Z,44.60
2022-12-15T11:54:24.785Z,34.70
2022-12-15T11:57:04.740Z,30.30
2022-12-15T11:59:53.562Z,29.10
2022-12-15T12:02:51.915Z,31.10
2022-12-15T12:05:37.719Z,30.80
2022-12-15T12:08:27.028Z,41.50
2022-12-15T12:11:07.180Z,35.50
2022-12-15T12:13:50.315Z,36.00
2022-12-15T12:16:33.819Z,29.50
2022-12-15T12:19:11.860Z,31.50
2022-12-15T12:24:48.898Z,29.90
2022-12-15T12:27:32.158Z,32.00
2022-12-15T12:30:07.780Z,30.70
2022-12-15T12:32:50.371Z,27.30
2022-12-15T12:35:33.207Z,25.20
2022-12-15T12:38:08.038Z,34.90
2022-12-15T12:40:50.546Z,35.30
2022-12-15T12:43:33.976Z,33.90
2022-12-15T12:46:12.187Z,34.20
2022-12-15T12:48:51.255Z,34.70
2022-12-15T12:51:31.452Z,38.90
2022-12-15T12:54:12.745Z,33.90
2022-12-15T12:56:50.615Z,32.10
2022-12-15T12:59:42.511Z,34.50
2022-12-15T13:02:55.487Z,37.10
2022-12-15T13:05:33.518Z,32.00
2022-12-15T13:08:42.721Z,30.30
2022-12-15T13:11:49.006Z,30.90
2022-12-15T13:14:26.636Z,30.20
2022-12-15T13:20:29.583Z,45.40
2022-12-15T13:23:34.941Z,36.00
2022-12-15T13:26:20.228Z,69.70
2022-12-15T13:28:58.090Z,37.50
2022-12-15T13:31:54.290Z,29.60
2022-12-15T13:34:30.111Z,29.70
2022-12-15T13:37:04.349Z,40.60
2022-12-15T13:39:53.259Z,43.00
2022-12-15T13:42:56.194Z,32.30
2022-12-15T13:45:48.836Z,32.80
2022-12-15T13:48:39.395Z,35.00
2022-12-15T13:51:25.009Z,28.50
2022-12-15T13:54:01.405Z,33.40
2022-12-15T13:56:47.858Z,34.70
2022-12-15T13:59:37.768Z,35.70
2022-12-15T14:02:27.480Z,34.50
2022-12-15T14:05:17.841Z,40.60
2022-12-15T14:07:54.733Z,43.50
2022-12-15T14:10:30.412Z,45.40
2022-12-15T14:13:16.057Z,44.70
2022-12-15T14:15:52.778Z,59.90
2022-12-15T14:18:34.008Z,45.30
2022-12-15T14:21:25.219Z,74.20
2022-12-15T14:24:36.535Z,39.40
2022-12-15T14:26:51.514Z,46.20
2022-12-15T14:29:24.279Z,46.80
2022-12-15T14:31:58.990Z,39.90
2022-12-15T14:34:35.218Z,36.00
2022-12-15T14:37:18.128Z,30.60
2022-12-15T14:39:52.647Z,35.10
2022-12-15T14:42:28.479Z,33.30
2022-12-15T14:45:02.371Z,31.40
2022-12-15T14:47:36.999Z,24.20
2022-12-15T14:50:13.590Z,31.50
2022-12-15T14:52:48.689Z,36.50
2022-12-15T14:55:35.831Z,35.20
2022-12-15T14:58:36.068Z,42.10
2022-12-15T15:01:26.717Z,40.30
2022-12-15T15:03:09.591Z,31.70
2022-12-15T15:04:03.828Z,37.60
2022-12-15T15:06:47.709Z,32.10
2022-12-15T15:09:28.593Z,32.30
2022-12-15T15:12:05.841Z,31.80
2022-12-15T15:14:43.889Z,32.90
2022-12-15T15:17:25.362Z,29.20
2022-12-15T15:20:01.998Z,31.20
2022-12-15T15:22:40.029Z,35.10
2022-12-15T15:25:41.408Z,37.40
2022-12-15T15:28:28.886Z,34.60
2022-12-15T15:31:07.189Z,39.10
2022-12-15T15:33:42.189Z,38.10
2022-12-15T15:36:17.074Z,38.20
2022-12-15T15:38:50.508Z,66.30
2022-12-15T15:41:30.852Z,48.20
2022-12-15T15:44:04.849Z,38.00
2022-12-15T15:46:44.741Z,36.60
2022-12-15T15:49:21.130Z,32.70
2022-12-15T15:51:56.681Z,33.90
2022-12-15T15:54:37.240Z,36.20
2022-12-15T15:57:11.099Z,34.30
2022-12-15T15:59:44.763Z,37.80
2022-12-15T16:02:18.199Z,40.60
2022-12-15T16:04:51.247Z,36.30
2022-12-15T16:07:27.340Z,29.50
2022-12-15T16:10:00.848Z,38.80
2022-12-15T16:12:37.968Z,36.60
2022-12-15T16:15:17.595Z,37.20
2022-12-15T16:17:50.977Z,36.40
2022-12-15T16:20:25.799Z,33.50
2022-12-15T16:23:02.119Z,32.10
2022-12-15T16:25:46.609Z,34.40
2022-12-15T16:28:24.791Z,33.30
2022-12-15T16:30:59.362Z,34.20
2022-12-15T16:33:32.447Z,30.90
2022-12-15T16:36:08.840Z,24.20
2022-12-15T16:39:19.890Z,30.10
2022-12-15T16:41:53.369Z,32.70
2022-12-15T16:44:27.240Z,33.30
2022-12-15T16:47:01.557Z,39.30
2022-12-15T16:49:39.943Z,36.20
2022-12-15T16:52:21.736Z,38.10
2022-12-15T16:54:54.732Z,34.60
2022-12-15T16:57:27.619Z,24.50
2022-12-15T17:00:00.220Z,30.70
2022-12-15T17:02:33.859Z,27.10
2022-12-15T17:05:07.338Z,35.20
2022-12-15T17:07:40.950Z,34.00
2022-12-15T17:12:50.421Z,32.30
2022-12-15T17:15:27.520Z,21.90
2022-12-15T17:18:00.097Z,29.90
2022-12-15T17:20:34.220Z,32.60
2022-12-15T17:23:09.481Z,29.70
2022-12-15T17:26:19.580Z,28.80
2022-12-15T17:28:41.080Z,31.70
2022-12-15T17:31:19.416Z,28.30
2022-12-15T17:33:53.710Z,33.20
2022-12-15T17:36:29.247Z,31.30
2022-12-15T17:39:03.180Z,32.60
2022-12-15T17:41:58.536Z,32.50
2022-12-15T17:44:34.115Z,30.70
2022-12-15T17:47:09.180Z,30.50
2022-12-15T17:49:42.970Z,34.70
2022-12-15T17:52:28.424Z,32.40
2022-12-15T17:55:02.051Z,31.70
2022-12-15T17:57:35.489Z,29.70
2022-12-15T18:00:19.429Z,32.70
2022-12-15T18:02:52.337Z,29.20
2022-12-15T18:05:31.217Z,31.20
2022-12-15T18:08:09.110Z,34.00
2022-12-15T18:10:42.851Z,32.30
2022-12-15T18:13:24.230Z,34.40
2022-12-15T18:15:57.846Z,32.40
2022-12-15T18:21:04.931Z,33.40
2022-12-15T18:23:37.568Z,35.90
2022-12-15T18:26:11.195Z,34.20
2022-12-15T18:31:21.743Z,32.80
2022-12-15T18:34:04.779Z,33.90
2022-12-15T18:36:38.303Z,37.10
2022-12-15T18:39:21.019Z,38.90
2022-12-15T18:41:55.159Z,37.40
2022-12-15T18:44:30.776Z,37.70
2022-12-15T18:47:26.905Z,39.00
2022-12-15T18:50:00.031Z,39.50
2022-12-15T18:52:35.047Z,42.30
2022-12-15T18:55:16.359Z,42.40
2022-12-15T18:57:49.689Z,45.60
2022-12-15T19:00:26.301Z,43.20
2022-12-15T19:03:02.096Z,46.00
2022-12-15T19:05:34.777Z,42.20
2022-12-15T19:08:13.717Z,42.20
2022-12-15T19:10:51.348Z,43.10
2022-12-15T19:13:25.999Z,41.40
2022-12-15T19:15:59.316Z,39.00
2022-12-15T19:18:49.798Z,40.40
2022-12-15T19:21:41.248Z,38.70
2022-12-15T19:24:17.768Z,36.60
2022-12-15T19:26:50.522Z,32.50
2022-12-15T19:29:25.012Z,25.50
2022-12-15T19:32:00.063Z,31.00
2022-12-15T19:34:34.719Z,32.20
2022-12-15T19:37:16.374Z,29.10
2022-12-15T19:39:52.275Z,31.50
2022-12-15T19:42:32.309Z,28.90
2022-12-15T19:45:15.794Z,36.60
2022-12-15T19:47:50.279Z,32.00
2022-12-15T19:50:27.638Z,30.00
2022-12-15T19:53:03.099Z,28.60
2022-12-15T19:55:38.040Z,28.50
2022-12-15T19:58:28.925Z,28.60
2022-12-15T20:01:03.737Z,28.40
2022-12-15T20:03:39.644Z,31.30
2022-12-15T20:06:18.609Z,30.30
2022-12-15T20:08:54.814Z,29.60
2022-12-15T20:11:31.387Z,20.90
2022-12-15T20:14:05.299Z,30.30
2022-12-15T20:16:38.020Z,29.70
2022-12-15T20:19:11.329Z,28.00
2022-12-15T20:21:44.746Z,22.30
2022-12-15T20:24:21.839Z,26.10
2022-12-15T20:26:56.187Z,26.40
2022-12-15T20:29:30.767Z,24.80
2022-12-15T20:32:08.873Z,24.60
2022-12-15T20:34:42.150Z,23.70
2022-12-15T20:37:22.159Z,27.10
2022-12-15T20:39:57.742Z,32.90
2022-12-15T20:42:31.357Z,96.80
2022-12-15T20:47:35.799Z,51.00
2022-12-15T20:50:22.824Z,42.00
2022-12-15T20:52:56.311Z,36.10
2022-12-15T20:55:33.390Z,37.60
2022-12-15T20:58:10.868Z,38.30
2022-12-15T21:00:52.184Z,53.00
2022-12-15T21:03:37.105Z,39.80
2022-12-15T21:06:17.507Z,45.10
2022-12-15T21:08:56.343Z,59.50
2022-12-15T21:11:33.638Z,37.80
2022-12-15T21:14:11.568Z,35.30
2022-12-15T21:16:44.478Z,35.40
2022-12-15T21:19:20.984Z,37.00
2022-12-15T21:21:56.009Z,30.80
2022-12-15T21:24:30.536Z,43.40
2022-12-15T21:27:04.738Z,40.90
2022-12-15T21:29:37.817Z,54.50
2022-12-15T21:32:10.849Z,35.90
2022-12-15T21:34:44.418Z,41.70
2022-12-15T21:37:28.918Z,34.20
2022-12-15T21:40:02.255Z,41.60
2022-12-15T21:42:38.368Z,45.50
2022-12-15T21:45:17.310Z,56.70
2022-12-15T21:48:08.511Z,71.90
2022-12-15T21:50:43.546Z,62.30
2022-12-15T21:53:18.048Z,51.50
2022-12-15T21:55:51.221Z,38.00
2022-12-15T21:58:27.916Z,41.20
2022-12-15T22:01:01.019Z,36.90
2022-12-15T22:03:34.249Z,30.00
2022-12-15T22:06:08.858Z,30.50
2022-12-15T22:08:42.151Z,38.00
2022-12-15T22:11:24.082Z,27.50
2022-12-15T22:13:58.879Z,27.70
2022-12-15T22:16:32.227Z,30.30
2022-12-15T22:19:05.530Z,32.40
2022-12-15T22:22:09.738Z,30.50
2022-12-15T22:24:42.716Z,39.20
2022-12-15T22:27:22.361Z,30.00
2022-12-15T22:29:57.861Z,32.80
2022-12-15T22:35:58.108Z,24.00
2022-12-15T22:38:31.163Z,28.40
2022-12-15T22:41:04.848Z,23.40
2022-12-15T22:43:41.468Z,28.90
2022-12-15T22:46:16.643Z,29.00
2022-12-15T22:48:50.658Z,32.30
2022-12-15T22:51:24.048Z,26.00
2022-12-15T22:53:56.859Z,22.50
2022-12-15T22:56:36.149Z,21.70
2022-12-15T22:59:14.509Z,25.00
2022-12-15T23:01:47.574Z,29.20
2022-12-15T23:04:20.571Z,30.50
2022-12-15T23:06:53.048Z,31.60
2022-12-15T23:09:28.445Z,31.20
2022-12-15T23:12:01.040Z,31.70
2022-12-15T23:14:52.038Z,27.90
2022-12-15T23:17:25.071Z,30.60
2022-12-15T23:19:57.966Z,30.70
2022-12-15T23:22:31.928Z,32.90
2022-12-15T23:25:07.880Z,31.50
2022-12-15T23:27:40.788Z,30.10
2022-12-15T23:30:15.181Z,30.30
2022-12-15T23:32:47.588Z,31.90
2022-12-15T23:35:20.479Z,28.00
2022-12-15T23:37:52.813Z,24.90
2022-12-15T23:40:25.768Z,29.00
2022-12-15T23:42:58.566Z,26.80
2022-12-15T23:45:31.317Z,22.60
2022-12-15T23:48:03.720Z,28.60
2022-12-15T23:50:37.257Z,29.10
2022-12-15T23:55:41.467Z,27.80
2022-12-15T23:58:14.448Z,22.70
